createdAt,value
2019-04-16T00:04:15.938Z,7.78
2019-04-16T00:09:32.936Z,6.72
2019-04-16T00:14:41.017Z,7.47
2019-04-16T00:19:44.554Z,8.50
2019-04-16T00:24:48.943Z,8.85
2019-04-16T00:29:52.407Z,7.97
2019-04-16T00:34:55.876Z,8.55
2019-04-16T00:39:59.426Z,9.75
2019-04-16T00:45:02.891Z,7.97
2019-04-16T00:50:07.090Z,8.93
2019-04-16T00:55:13.650Z,8.38
2019-04-16T01:00:16.812Z,8.58
2019-04-16T01:05:20.429Z,8.50
2019-04-16T01:10:24.679Z,8.08
2019-04-16T01:15:29.177Z,10.40
2019-04-16T01:20:34.067Z,10.03
2019-04-16T01:25:37.565Z,9.10
2019-04-16T01:30:51.697Z,10.63
2019-04-16T01:35:56.802Z,11.90
2019-04-16T01:41:01.946Z,11.18
2019-04-16T01:46:05.619Z,9.98
2019-04-16T01:51:09.092Z,10.55
2019-04-16T01:56:12.625Z,11.73
2019-04-16T02:01:16.670Z,10.00
2019-04-16T02:06:20.241Z,9.35
2019-04-16T02:11:23.772Z,9.35
2019-04-16T02:16:27.364Z,9.78
2019-04-16T02:21:30.874Z,9.95
2019-04-16T02:26:34.422Z,10.85
2019-04-16T02:31:37.958Z,10.05
2019-04-16T02:36:41.466Z,11.75
2019-04-16T02:41:45.003Z,10.80
2019-04-16T02:46:48.500Z,10.35
2019-04-16T02:51:53.608Z,13.22
2019-04-16T02:57:07.341Z,11.15
2019-04-16T03:02:24.696Z,10.10
2019-04-16T03:07:28.168Z,11.40
2019-04-16T03:12:31.704Z,11.33
2019-04-16T03:17:39.518Z,10.25
2019-04-16T03:22:45.181Z,11.33
2019-04-16T03:27:51.471Z,10.38
2019-04-16T03:32:53.911Z,8.83
2019-04-16T03:37:57.452Z,9.23
2019-04-16T03:43:03.963Z,11.43
2019-04-16T03:48:06.381Z,11.45
2019-04-16T03:53:09.922Z,11.85
2019-04-16T03:58:13.460Z,10.68
2019-04-16T04:03:17.000Z,10.63
2019-04-16T04:08:20.473Z,11.22
2019-04-16T04:13:24.012Z,10.23
2019-04-16T04:18:27.584Z,8.70
2019-04-16T04:23:31.169Z,9.48
2019-04-16T04:28:34.631Z,9.43
2019-04-16T04:33:41.887Z,8.88
2019-04-16T04:38:43.686Z,8.48
2019-04-16T04:43:47.161Z,8.58
2019-04-16T04:48:54.924Z,10.08
2019-04-16T04:53:55.930Z,8.90
2019-04-16T04:58:59.416Z,8.53
2019-04-16T05:04:21.160Z,10.28
2019-04-16T05:09:24.808Z,8.80
2019-04-16T05:14:28.299Z,10.32
2019-04-16T05:19:31.780Z,8.63
2019-04-16T05:24:37.612Z,8.15
2019-04-16T05:29:40.453Z,9.40
2019-04-16T05:34:44.359Z,13.55
2019-04-16T05:39:47.829Z,14.05
2019-04-16T05:44:51.317Z,19.73
2019-04-16T05:49:58.069Z,16.05
2019-04-16T05:55:02.143Z,36.40
2019-04-16T06:00:10.436Z,28.62
2019-04-16T06:05:14.314Z,29.32
2019-04-16T06:10:19.397Z,29.15
2019-04-16T06:15:30.576Z,21.82
2019-04-16T06:20:35.746Z,18.92
2019-04-16T06:25:42.012Z,18.10
2019-04-16T06:30:50.441Z,21.02
2019-04-16T06:36:01.741Z,18.60
2019-04-16T06:41:09.596Z,16.07
2019-04-16T06:46:29.878Z,17.95
2019-04-16T06:51:50.139Z,16.65
2019-04-16T06:57:12.184Z,13.83
2019-04-16T07:02:37.572Z,10.90
2019-04-16T07:07:46.927Z,14.05
2019-04-16T07:12:50.640Z,11.48
2019-04-16T07:17:54.385Z,9.85
2019-04-16T07:22:57.866Z,11.18
2019-04-16T07:28:15.210Z,9.23
2019-04-16T07:33:23.139Z,12.20
2019-04-16T07:38:30.973Z,8.20
2019-04-16T07:43:52.610Z,7.87
2019-04-16T07:49:14.360Z,10.03
2019-04-16T07:54:28.350Z,11.00
2019-04-16T07:59:32.885Z,9.83
2019-04-16T08:04:36.692Z,10.40
2019-04-16T08:09:40.225Z,13.95
2019-04-16T08:14:43.704Z,11.40
2019-04-16T08:19:49.016Z,9.75
2019-04-16T08:25:02.896Z,11.83
2019-04-16T08:30:11.536Z,7.80
2019-04-16T08:35:15.080Z,7.92
2019-04-16T08:40:18.659Z,8.95
2019-04-16T08:45:22.223Z,6.42
2019-04-16T08:50:26.850Z,8.70
2019-04-16T08:55:30.662Z,9.70
2019-04-16T09:00:34.950Z,9.95
2019-04-16T09:05:41.304Z,8.00
2019-04-16T09:10:44.813Z,10.30
2019-04-16T09:15:48.718Z,9.20
2019-04-16T09:20:52.267Z,9.48
2019-04-16T09:26:12.078Z,11.35
2019-04-16T09:31:07.176Z,8.60
2019-04-16T09:36:14.739Z,10.30
2019-04-16T09:41:28.591Z,8.08
2019-04-16T09:46:50.889Z,6.35
2019-04-16T09:51:37.363Z,6.28
2019-04-16T09:56:40.863Z,5.67
2019-04-16T10:01:46.850Z,6.58
2019-04-16T10:06:56.480Z,5.55
2019-04-16T10:12:00.174Z,7.00
2019-04-16T10:17:05.918Z,7.33
2019-04-16T10:22:09.524Z,8.30
2019-04-16T10:27:14.763Z,7.10
2019-04-16T10:32:20.013Z,4.37
2019-04-16T10:37:23.583Z,7.30
2019-04-16T10:42:31.682Z,5.55
2019-04-16T10:47:48.633Z,5.08
2019-04-16T10:52:56.826Z,5.75
2019-04-16T10:58:18.811Z,8.03
2019-04-16T11:03:34.658Z,6.28
2019-04-16T11:08:37.849Z,8.85
2019-04-16T11:13:59.336Z,8.15
2019-04-16T11:18:54.856Z,12.25
2019-04-16T11:23:56.735Z,21.20
2019-04-16T11:29:00.215Z,23.07
2019-04-16T11:34:05.371Z,30.82
2019-04-16T11:39:10.618Z,26.48
2019-04-16T11:44:16.817Z,24.50
2019-04-16T11:49:20.993Z,27.30
2019-04-16T11:54:24.548Z,27.52
2019-04-16T11:59:28.119Z,21.48
2019-04-16T12:04:45.307Z,19.85
2019-04-16T12:09:56.497Z,16.20
2019-04-16T12:15:04.264Z,17.27
2019-04-16T12:20:26.364Z,15.32
2019-04-16T12:25:46.552Z,16.48
2019-04-16T12:31:04.011Z,14.85
2019-04-16T12:36:24.629Z,14.80
2019-04-16T12:41:38.843Z,14.03
2019-04-16T12:46:46.491Z,14.80
2019-04-16T12:51:51.944Z,12.10
2019-04-16T12:57:14.501Z,12.60
2019-04-16T13:02:26.294Z,10.40
2019-04-16T13:07:31.410Z,7.62
2019-04-16T13:12:36.533Z,7.75
2019-04-16T13:17:47.931Z,7.55
2019-04-16T13:22:54.347Z,7.70
2019-04-16T13:27:57.814Z,8.63
2019-04-16T13:33:01.301Z,7.40
2019-04-16T13:38:08.112Z,7.92
2019-04-16T13:43:11.684Z,9.38
2019-04-16T13:48:27.603Z,9.73
2019-04-16T13:53:38.858Z,9.15
2019-04-16T13:58:50.050Z,7.58
2019-04-16T14:03:56.258Z,9.45
2019-04-16T14:08:58.870Z,8.63
2019-04-16T14:14:07.606Z,7.20
2019-04-16T14:19:07.666Z,7.83
2019-04-16T14:24:12.515Z,8.40
2019-04-16T14:29:16.391Z,6.78
2019-04-16T14:34:24.534Z,9.00
2019-04-16T14:39:32.162Z,9.53
2019-04-16T14:44:46.202Z,9.98
2019-04-16T14:49:50.884Z,7.62
2019-04-16T14:54:56.563Z,7.90
2019-04-16T15:00:04.655Z,8.93
2019-04-16T15:05:16.422Z,8.50
2019-04-16T15:10:21.817Z,10.63
2019-04-16T15:15:27.018Z,10.00
2019-04-16T15:20:48.738Z,13.95
2019-04-16T15:25:59.715Z,14.33
2019-04-16T15:31:10.902Z,10.35
2019-04-16T15:36:19.536Z,15.20
2019-04-16T15:41:28.587Z,10.08
2019-04-16T15:46:50.218Z,11.55
2019-04-16T15:51:59.047Z,9.13
2019-04-16T15:57:22.181Z,9.48
2019-04-16T16:02:30.055Z,8.35
2019-04-16T16:07:34.604Z,7.85
2019-04-16T16:12:38.179Z,9.08
2019-04-16T16:17:41.807Z,8.50
2019-04-16T16:22:45.349Z,10.23
2019-04-16T16:27:49.797Z,7.45
2019-04-16T16:32:53.302Z,5.20
2019-04-16T16:37:56.844Z,8.68
2019-04-16T16:43:00.318Z,9.78
2019-04-16T16:48:03.986Z,7.25
2019-04-16T16:53:12.141Z,5.97
2019-04-16T16:58:17.952Z,9.73
2019-04-16T17:03:30.050Z,9.75
2019-04-16T17:08:33.626Z,11.18
2019-04-16T17:13:37.136Z,9.63
2019-04-16T17:18:40.611Z,15.20
2019-04-16T17:23:44.197Z,19.42
2019-04-16T17:28:47.703Z,12.00
2019-04-16T17:33:51.253Z,11.83
2019-04-16T17:38:54.778Z,10.35
2019-04-16T17:44:02.871Z,12.37
2019-04-16T17:49:23.182Z,10.63
2019-04-16T17:54:32.626Z,15.25
2019-04-16T17:59:40.771Z,14.63
2019-04-16T18:04:49.088Z,16.57
2019-04-16T18:10:01.514Z,12.85
2019-04-16T18:15:16.019Z,11.18
2019-04-16T18:20:27.057Z,15.60
2019-04-16T18:25:35.309Z,9.43
2019-04-16T18:30:52.618Z,8.08
2019-04-16T18:36:01.140Z,10.03
2019-04-16T18:41:10.543Z,13.32
2019-04-16T18:46:15.765Z,8.35
2019-04-16T18:51:19.322Z,8.40
2019-04-16T18:56:22.867Z,8.65
2019-04-16T19:01:32.586Z,10.35
2019-04-16T19:06:36.213Z,8.85
2019-04-16T19:11:39.674Z,9.78
2019-04-16T19:16:43.147Z,10.38
2019-04-16T19:21:51.271Z,7.62
2019-04-16T19:26:52.587Z,9.53
2019-04-16T19:31:57.343Z,8.38
2019-04-16T19:37:01.390Z,7.00
2019-04-16T19:42:05.108Z,6.80
2019-04-16T19:47:08.632Z,6.37
2019-04-16T19:52:14.298Z,10.20
2019-04-16T19:57:17.506Z,11.48
2019-04-16T20:02:21.778Z,7.50
2019-04-16T20:07:25.309Z,8.35
2019-04-16T20:12:28.907Z,6.62
2019-04-16T20:17:33.157Z,7.25
2019-04-16T20:22:38.258Z,7.33
2019-04-16T20:27:41.830Z,7.70
2019-04-16T20:32:45.393Z,9.45
2019-04-16T20:37:50.424Z,7.33
2019-04-16T20:42:54.207Z,8.35
2019-04-16T20:47:57.709Z,8.48
2019-04-16T20:53:06.177Z,10.18
2019-04-16T20:58:06.708Z,7.97
2019-04-16T21:03:21.894Z,8.23
2019-04-16T21:08:17.126Z,6.78
2019-04-16T21:13:20.746Z,9.33
2019-04-16T21:18:24.289Z,19.87
2019-04-16T21:23:27.802Z,9.60
2019-04-16T21:28:33.016Z,7.55
2019-04-16T21:33:40.846Z,8.68
2019-04-16T21:38:49.090Z,7.87
2019-04-16T21:43:52.652Z,10.43
2019-04-16T21:48:59.845Z,8.23
2019-04-16T21:54:01.758Z,8.25
2019-04-16T21:59:05.988Z,8.23
2019-04-16T22:04:14.441Z,7.87
2019-04-16T22:09:17.681Z,8.20
2019-04-16T22:14:22.247Z,9.68
2019-04-16T22:19:26.382Z,9.53
2019-04-16T22:24:29.891Z,9.30
2019-04-16T22:29:33.510Z,9.60
2019-04-16T22:34:37.084Z,9.28
2019-04-16T22:39:51.953Z,10.28
2019-04-16T22:45:13.764Z,9.15
2019-04-16T22:50:17.489Z,8.13
2019-04-16T22:55:24.389Z,8.80
2019-04-16T23:00:30.781Z,8.73
2019-04-16T23:05:34.409Z,8.78
2019-04-16T23:10:37.943Z,9.38
2019-04-16T23:15:42.720Z,9.48
2019-04-16T23:20:46.207Z,7.47
2019-04-16T23:25:49.711Z,9.05
2019-04-16T23:30:53.167Z,15.85
2019-04-16T23:35:56.641Z,10.98
2019-04-16T23:41:00.144Z,9.33
2019-04-16T23:46:14.155Z,9.58
2019-04-16T23:51:28.972Z,9.35
2019-04-16T23:56:37.564Z,7.47
